sensor_id;sensor_type;location;lat;lon;timestamp;temperature;humidity
21612;DHT22;47005;52.292;13.452;2023-03-24T00:02:26;12.30;99.00
21612;DHT22;47005;52.292;13.452;2023-03-24T00:04:53;12.30;99.00
21612;DHT22;47005;52.292;13.452;2023-03-24T00:07:23;12.30;98.80
21612;DHT22;47005;52.292;13.452;2023-03-24T00:09:49;12.20;98.80
21612;DHT22;47005;52.292;13.452;2023-03-24T00:12:15;12.20;98.80
21612;DHT22;47005;52.292;13.452;2023-03-24T00:14:43;12.20;98.90
21612;DHT22;47005;52.292;13.452;2023-03-24T00:17:11;12.20;99.00
21612;DHT22;47005;52.292;13.452;2023-03-24T00:19:39;12.20;98.90
21612;DHT22;47005;52.292;13.452;2023-03-24T00:22:06;12.20;98.90
21612;DHT22;47005;52.292;13.452;2023-03-24T00:24:32;12.20;98.90
21612;DHT22;47005;52.292;13.452;2023-03-24T00:26:59;12.10;99.10
21612;DHT22;47005;52.292;13.452;2023-03-24T00:29:25;12.20;98.90
21612;DHT22;47005;52.292;13.452;2023-03-24T00:31:51;12.10;98.80
21612;DHT22;47005;52.292;13.452;2023-03-24T00:34:18;12.10;98.90
21612;DHT22;47005;52.292;13.452;2023-03-24T00:36:48;12.10;99.40
21612;DHT22;47005;52.292;13.452;2023-03-24T00:39:15;12.10;99.40
21612;DHT22;47005;52.292;13.452;2023-03-24T00:41:42;12.10;99.50
21612;DHT22;47005;52.292;13.452;2023-03-24T00:44:13;12.10;99.60
21612;DHT22;47005;52.292;13.452;2023-03-24T00:46:44;12.10;99.60
21612;DHT22;47005;52.292;13.452;2023-03-24T00:49:11;12.10;99.90
21612;DHT22;47005;52.292;13.452;2023-03-24T00:51:39;12.10;99.90
21612;DHT22;47005;52.292;13.452;2023-03-24T00:54:07;12.10;99.80
21612;DHT22;47005;52.292;13.452;2023-03-24T00:56:35;12.10;99.80
21612;DHT22;47005;52.292;13.452;2023-03-24T00:59:02;12.10;99.80
21612;DHT22;47005;52.292;13.452;2023-03-24T01:01:30;12.10;99.90
21612;DHT22;47005;52.292;13.452;2023-03-24T01:04:00;12.10;99.90
21612;DHT22;47005;52.292;13.452;2023-03-24T01:06:26;12.10;99.90
21612;DHT22;47005;52.292;13.452;2023-03-24T01:08:52;12.10;99.90
21612;DHT22;47005;52.292;13.452;2023-03-24T01:11:20;12.10;99.90
21612;DHT22;47005;52.292;13.452;2023-03-24T01:13:47;12.10;99.90
21612;DHT22;47005;52.292;13.452;2023-03-24T01:16:13;12.10;99.90
21612;DHT22;47005;52.292;13.452;2023-03-24T01:18:40;12.10;99.90
21612;DHT22;47005;52.292;13.452;2023-03-24T01:21:08;12.10;99.90
21612;DHT22;47005;52.292;13.452;2023-03-24T01:23:37;12.10;99.90
21612;DHT22;47005;52.292;13.452;2023-03-24T01:26:05;12.10;99.90
21612;DHT22;47005;52.292;13.452;2023-03-24T01:28:32;12.10;99.90
21612;DHT22;47005;52.292;13.452;2023-03-24T01:31:00;12.10;99.90
21612;DHT22;47005;52.292;13.452;2023-03-24T01:33:25;12.10;99.90
21612;DHT22;47005;52.292;13.452;2023-03-24T01:35:51;12.10;99.90
21612;DHT22;47005;52.292;13.452;2023-03-24T01:38:17;12.10;99.90
21612;DHT22;47005;52.292;13.452;2023-03-24T01:40:45;12.10;99.90
21612;DHT22;47005;52.292;13.452;2023-03-24T01:43:22;12.10;99.90
21612;DHT22;47005;52.292;13.452;2023-03-24T01:48:39;12.10;99.90
21612;DHT22;47005;52.292;13.452;2023-03-24T01:51:11;12.10;99.90
21612;DHT22;47005;52.292;13.452;2023-03-24T01:53:55;12.10;99.90
21612;DHT22;47005;52.292;13.452;2023-03-24T01:56:23;12.10;99.90
21612;DHT22;47005;52.292;13.452;2023-03-24T01:58:55;12.10;99.90
21612;DHT22;47005;52.292;13.452;2023-03-24T02:01:22;12.10;99.90
21612;DHT22;47005;52.292;13.452;2023-03-24T02:03:51;12.10;99.90
21612;DHT22;47005;52.292;13.452;2023-03-24T02:06:17;12.10;99.90
21612;DHT22;47005;52.292;13.452;2023-03-24T02:08:58;12.10;99.90
21612;DHT22;47005;52.292;13.452;2023-03-24T02:11:29;12.10;99.90
21612;DHT22;47005;52.292;13.452;2023-03-24T02:13:55;12.10;99.90
21612;DHT22;47005;52.292;13.452;2023-03-24T02:25:42;12.10;99.90
21612;DHT22;47005;52.292;13.452;2023-03-24T02:44:34;12.20;99.90
21612;DHT22;47005;52.292;13.452;2023-03-24T02:47:17;12.20;99.90
21612;DHT22;47005;52.292;13.452;2023-03-24T02:52:44;12.20;99.90
21612;DHT22;47005;52.292;13.452;2023-03-24T02:58:00;12.20;99.90
21612;DHT22;47005;52.292;13.452;2023-03-24T03:00:52;12.20;99.90
21612;DHT22;47005;52.292;13.452;2023-03-24T03:08:18;12.30;99.90
21612;DHT22;47005;52.292;13.452;2023-03-24T03:10:47;12.30;99.90
21612;DHT22;47005;52.292;13.452;2023-03-24T03:13:21;12.30;99.90
21612;DHT22;47005;52.292;13.452;2023-03-24T03:15:54;12.30;99.90
21612;DHT22;47005;52.292;13.452;2023-03-24T03:18:40;12.30;99.90
21612;DHT22;47005;52.292;13.452;2023-03-24T03:21:13;12.30;99.90
21612;DHT22;47005;52.292;13.452;2023-03-24T03:23:55;12.30;99.90
21612;DHT22;47005;52.292;13.452;2023-03-24T03:26:23;12.30;99.90
21612;DHT22;47005;52.292;13.452;2023-03-24T03:28:55;12.30;99.90
21612;DHT22;47005;52.292;13.452;2023-03-24T03:31:42;12.30;99.90
21612;DHT22;47005;52.292;13.452;2023-03-24T03:34:16;12.30;99.90
21612;DHT22;47005;52.292;13.452;2023-03-24T03:36:55;12.30;99.90
21612;DHT22;47005;52.292;13.452;2023-03-24T03:39:31;12.30;99.90
21612;DHT22;47005;52.292;13.452;2023-03-24T03:41:58;12.30;99.90
21612;DHT22;47005;52.292;13.452;2023-03-24T03:44:24;12.30;99.90
21612;DHT22;47005;52.292;13.452;2023-03-24T03:46:51;12.30;99.90
21612;DHT22;47005;52.292;13.452;2023-03-24T03:49:19;12.30;99.90
21612;DHT22;47005;52.292;13.452;2023-03-24T03:51:45;12.30;99.90
21612;DHT22;47005;52.292;13.452;2023-03-24T03:54:12;12.30;99.90
21612;DHT22;47005;52.292;13.452;2023-03-24T03:56:39;12.30;99.90
21612;DHT22;47005;52.292;13.452;2023-03-24T03:59:06;12.30;99.90
21612;DHT22;47005;52.292;13.452;2023-03-24T04:01:34;12.30;99.90
21612;DHT22;47005;52.292;13.452;2023-03-24T04:23:28;12.30;99.90
21612;DHT22;47005;52.292;13.452;2023-03-24T04:34:54;12.30;99.90
21612;DHT22;47005;52.292;13.452;2023-03-24T04:37:29;12.30;99.90
21612;DHT22;47005;52.292;13.452;2023-03-24T04:40:05;12.30;99.90
21612;DHT22;47005;52.292;13.452;2023-03-24T04:42:44;12.30;99.90
21612;DHT22;47005;52.292;13.452;2023-03-24T04:45:11;12.40;99.90
21612;DHT22;47005;52.292;13.452;2023-03-24T04:47:53;12.40;99.90
21612;DHT22;47005;52.292;13.452;2023-03-24T04:50:57;12.40;99.90
21612;DHT22;47005;52.292;13.452;2023-03-24T04:53:23;12.40;99.90
21612;DHT22;47005;52.292;13.452;2023-03-24T04:58:16;12.40;99.90
21612;DHT22;47005;52.292;13.452;2023-03-24T05:00:43;12.40;99.90
21612;DHT22;47005;52.292;13.452;2023-03-24T05:03:13;12.40;99.90
21612;DHT22;47005;52.292;13.452;2023-03-24T05:05:44;12.40;99.90
21612;DHT22;47005;52.292;13.452;2023-03-24T05:08:10;12.50;99.90
21612;DHT22;47005;52.292;13.452;2023-03-24T05:10:36;12.50;99.90
21612;DHT22;47005;52.292;13.452;2023-03-24T05:13:04;12.50;99.90
21612;DHT22;47005;52.292;13.452;2023-03-24T05:15:29;12.50;99.90
21612;DHT22;47005;52.292;13.452;2023-03-24T05:17:56;12.50;99.90
21612;DHT22;47005;52.292;13.452;2023-03-24T05:20:22;12.50;99.90
21612;DHT22;47005;52.292;13.452;2023-03-24T05:22:48;12.50;99.90
21612;DHT22;47005;52.292;13.452;2023-03-24T05:25:14;12.50;99.90
21612;DHT22;47005;52.292;13.452;2023-03-24T05:27:41;12.50;99.90
21612;DHT22;47005;52.292;13.452;2023-03-24T05:30:07;12.50;99.90
21612;DHT22;47005;52.292;13.452;2023-03-24T05:32:33;12.50;99.90
21612;DHT22;47005;52.292;13.452;2023-03-24T05:34:59;12.60;99.90
21612;DHT22;47005;52.292;13.452;2023-03-24T05:37:24;12.60;99.90
21612;DHT22;47005;52.292;13.452;2023-03-24T05:39:52;12.60;99.90
21612;DHT22;47005;52.292;13.452;2023-03-24T05:42:18;12.60;99.90
21612;DHT22;47005;52.292;13.452;2023-03-24T05:44:43;12.60;99.90
21612;DHT22;47005;52.292;13.452;2023-03-24T05:47:10;12.60;99.90
21612;DHT22;47005;52.292;13.452;2023-03-24T05:49:38;12.60;99.90
21612;DHT22;47005;52.292;13.452;2023-03-24T05:52:04;12.70;99.90
21612;DHT22;47005;52.292;13.452;2023-03-24T05:54:33;12.70;99.90
21612;DHT22;47005;52.292;13.452;2023-03-24T05:56:59;12.70;99.90
21612;DHT22;47005;52.292;13.452;2023-03-24T05:59:25;12.70;99.90
21612;DHT22;47005;52.292;13.452;2023-03-24T06:01:50;12.70;99.90
21612;DHT22;47005;52.292;13.452;2023-03-24T06:04:18;12.70;99.90
21612;DHT22;47005;52.292;13.452;2023-03-24T06:06:45;12.70;99.90
21612;DHT22;47005;52.292;13.452;2023-03-24T06:09:11;12.80;99.90
21612;DHT22;47005;52.292;13.452;2023-03-24T06:11:39;12.80;99.90
21612;DHT22;47005;52.292;13.452;2023-03-24T06:14:04;12.80;99.90
21612;DHT22;47005;52.292;13.452;2023-03-24T06:16:33;12.80;99.90
21612;DHT22;47005;52.292;13.452;2023-03-24T06:19:03;12.80;99.90
21612;DHT22;47005;52.292;13.452;2023-03-24T06:21:31;12.80;99.90
21612;DHT22;47005;52.292;13.452;2023-03-24T06:23:57;12.80;99.90
21612;DHT22;47005;52.292;13.452;2023-03-24T06:26:23;12.80;99.90
21612;DHT22;47005;52.292;13.452;2023-03-24T06:28:49;12.90;99.90
21612;DHT22;47005;52.292;13.452;2023-03-24T06:31:17;12.90;99.90
21612;DHT22;47005;52.292;13.452;2023-03-24T06:33:45;12.90;99.90
21612;DHT22;47005;52.292;13.452;2023-03-24T06:36:12;12.90;99.90
21612;DHT22;47005;52.292;13.452;2023-03-24T06:38:39;13.00;99.90
21612;DHT22;47005;52.292;13.452;2023-03-24T06:41:05;13.00;99.90
21612;DHT22;47005;52.292;13.452;2023-03-24T06:43:31;13.00;99.90
21612;DHT22;47005;52.292;13.452;2023-03-24T06:45:57;13.10;99.90
21612;DHT22;47005;52.292;13.452;2023-03-24T06:48:23;13.00;99.90
21612;DHT22;47005;52.292;13.452;2023-03-24T06:50:51;13.10;99.90
21612;DHT22;47005;52.292;13.452;2023-03-24T06:53:17;13.10;99.90
21612;DHT22;47005;52.292;13.452;2023-03-24T06:55:43;13.10;99.90
21612;DHT22;47005;52.292;13.452;2023-03-24T06:58:09;13.20;99.90
21612;DHT22;47005;52.292;13.452;2023-03-24T07:00:35;13.20;99.90
21612;DHT22;47005;52.292;13.452;2023-03-24T07:03:01;13.20;99.90
21612;DHT22;47005;52.292;13.452;2023-03-24T07:05:27;13.30;99.90
21612;DHT22;47005;52.292;13.452;2023-03-24T07:07:53;13.30;99.90
21612;DHT22;47005;52.292;13.452;2023-03-24T07:10:19;13.30;99.90
21612;DHT22;47005;52.292;13.452;2023-03-24T07:12:46;13.30;99.90
21612;DHT22;47005;52.292;13.452;2023-03-24T07:15:12;13.30;99.90
21612;DHT22;47005;52.292;13.452;2023-03-24T07:17:40;13.30;99.90
21612;DHT22;47005;52.292;13.452;2023-03-24T07:20:07;13.40;99.90
21612;DHT22;47005;52.292;13.452;2023-03-24T07:22:34;13.40;99.90
21612;DHT22;47005;52.292;13.452;2023-03-24T07:25:03;13.40;99.90
21612;DHT22;47005;52.292;13.452;2023-03-24T07:27:30;13.40;99.90
21612;DHT22;47005;52.292;13.452;2023-03-24T07:30:00;13.40;99.90
21612;DHT22;47005;52.292;13.452;2023-03-24T07:32:29;13.50;99.90
21612;DHT22;47005;52.292;13.452;2023-03-24T07:34:55;13.50;99.90
21612;DHT22;47005;52.292;13.452;2023-03-24T07:37:22;13.50;99.90
21612;DHT22;47005;52.292;13.452;2023-03-24T07:39:47;13.50;99.90
21612;DHT22;47005;52.292;13.452;2023-03-24T07:42:13;13.60;99.90
21612;DHT22;47005;52.292;13.452;2023-03-24T07:44:39;13.60;99.90
21612;DHT22;47005;52.292;13.452;2023-03-24T07:47:05;13.60;99.90
21612;DHT22;47005;52.292;13.452;2023-03-24T07:49:30;13.70;99.90
21612;DHT22;47005;52.292;13.452;2023-03-24T07:51:56;13.70;99.90
21612;DHT22;47005;52.292;13.452;2023-03-24T07:54:23;13.70;99.90
21612;DHT22;47005;52.292;13.452;2023-03-24T07:56:49;13.80;99.90
21612;DHT22;47005;52.292;13.452;2023-03-24T07:59:15;13.80;99.90
21612;DHT22;47005;52.292;13.452;2023-03-24T08:01:42;13.80;99.90
21612;DHT22;47005;52.292;13.452;2023-03-24T08:04:10;13.80;99.90
21612;DHT22;47005;52.292;13.452;2023-03-24T08:06:37;13.70;99.90
21612;DHT22;47005;52.292;13.452;2023-03-24T08:09:03;13.70;99.90
21612;DHT22;47005;52.292;13.452;2023-03-24T08:11:29;13.70;99.90
21612;DHT22;47005;52.292;13.452;2023-03-24T08:13:54;13.70;99.90
21612;DHT22;47005;52.292;13.452;2023-03-24T08:16:20;13.60;99.90
21612;DHT22;47005;52.292;13.452;2023-03-24T08:18:46;13.60;99.90
21612;DHT22;47005;52.292;13.452;2023-03-24T08:21:13;13.50;99.90
21612;DHT22;47005;52.292;13.452;2023-03-24T08:23:38;13.50;99.90
21612;DHT22;47005;52.292;13.452;2023-03-24T08:26:04;13.50;99.90
21612;DHT22;47005;52.292;13.452;2023-03-24T08:28:31;13.40;99.90
21612;DHT22;47005;52.292;13.452;2023-03-24T08:30:57;13.40;99.90
21612;DHT22;47005;52.292;13.452;2023-03-24T08:33:23;13.40;99.90
21612;DHT22;47005;52.292;13.452;2023-03-24T08:35:48;13.40;99.90
21612;DHT22;47005;52.292;13.452;2023-03-24T08:38:15;13.40;99.90
21612;DHT22;47005;52.292;13.452;2023-03-24T08:40:42;13.30;99.90
21612;DHT22;47005;52.292;13.452;2023-03-24T08:43:11;13.30;99.90
21612;DHT22;47005;52.292;13.452;2023-03-24T08:45:38;13.30;99.90
21612;DHT22;47005;52.292;13.452;2023-03-24T08:48:06;13.30;99.90
21612;DHT22;47005;52.292;13.452;2023-03-24T08:50:33;13.30;99.90
21612;DHT22;47005;52.292;13.452;2023-03-24T08:53:00;13.30;99.90
21612;DHT22;47005;52.292;13.452;2023-03-24T08:55:26;13.30;99.90
21612;DHT22;47005;52.292;13.452;2023-03-24T08:57:52;13.30;99.90
21612;DHT22;47005;52.292;13.452;2023-03-24T09:00:19;13.30;99.90
21612;DHT22;47005;52.292;13.452;2023-03-24T09:02:47;13.30;99.90
21612;DHT22;47005;52.292;13.452;2023-03-24T09:05:14;13.30;99.90
21612;DHT22;47005;52.292;13.452;2023-03-24T09:07:40;13.30;99.90
21612;DHT22;47005;52.292;13.452;2023-03-24T09:10:08;13.30;99.90
21612;DHT22;47005;52.292;13.452;2023-03-24T09:12:35;13.30;99.90
21612;DHT22;47005;52.292;13.452;2023-03-24T09:15:01;13.30;99.90
21612;DHT22;47005;52.292;13.452;2023-03-24T09:17:28;13.40;99.90
21612;DHT22;47005;52.292;13.452;2023-03-24T09:19:53;13.40;99.90
21612;DHT22;47005;52.292;13.452;2023-03-24T09:22:19;13.40;99.90
21612;DHT22;47005;52.292;13.452;2023-03-24T09:24:45;13.40;99.90
21612;DHT22;47005;52.292;13.452;2023-03-24T09:27:16;13.40;99.90
21612;DHT22;47005;52.292;13.452;2023-03-24T09:29:42;13.40;99.90
21612;DHT22;47005;52.292;13.452;2023-03-24T09:32:08;13.40;99.90
21612;DHT22;47005;52.292;13.452;2023-03-24T09:34:35;13.50;99.90
21612;DHT22;47005;52.292;13.452;2023-03-24T09:37:03;13.50;99.90
21612;DHT22;47005;52.292;13.452;2023-03-24T09:39:29;13.50;99.90
21612;DHT22;47005;52.292;13.452;2023-03-24T09:41:54;13.60;99.90
21612;DHT22;47005;52.292;13.452;2023-03-24T09:44:23;13.60;99.90
21612;DHT22;47005;52.292;13.452;2023-03-24T09:47:00;13.70;99.90
21612;DHT22;47005;52.292;13.452;2023-03-24T09:49:31;13.80;99.90
21612;DHT22;47005;52.292;13.452;2023-03-24T09:52:09;13.80;99.90
21612;DHT22;47005;52.292;13.452;2023-03-24T09:57:33;14.00;99.90
21612;DHT22;47005;52.292;13.452;2023-03-24T10:02:41;14.20;99.90
21612;DHT22;47005;52.292;13.452;2023-03-24T10:05:53;14.30;99.90
21612;DHT22;47005;52.292;13.452;2023-03-24T10:16:58;14.70;99.90
21612;DHT22;47005;52.292;13.452;2023-03-24T10:22:39;14.80;99.90
21612;DHT22;47005;52.292;13.452;2023-03-24T10:25:30;14.90;99.90
21612;DHT22;47005;52.292;13.452;2023-03-24T10:30:41;15.00;99.90
21612;DHT22;47005;52.292;13.452;2023-03-24T10:33:12;15.10;99.90
21612;DHT22;47005;52.292;13.452;2023-03-24T10:35:54;15.20;99.90
21612;DHT22;47005;52.292;13.452;2023-03-24T10:38:22;15.20;99.90
21612;DHT22;47005;52.292;13.452;2023-03-24T10:40:48;15.30;99.90
21612;DHT22;47005;52.292;13.452;2023-03-24T10:43:17;15.30;99.90
21612;DHT22;47005;52.292;13.452;2023-03-24T10:45:49;15.30;99.90
21612;DHT22;47005;52.292;13.452;2023-03-24T10:51:05;15.30;99.90
21612;DHT22;47005;52.292;13.452;2023-03-24T10:53:31;15.30;99.90
21612;DHT22;47005;52.292;13.452;2023-03-24T10:56:00;15.20;99.90
21612;DHT22;47005;52.292;13.452;2023-03-24T10:58:35;15.10;99.90
21612;DHT22;47005;52.292;13.452;2023-03-24T11:01:02;14.90;99.90
21612;DHT22;47005;52.292;13.452;2023-03-24T11:03:35;14.80;99.90
21612;DHT22;47005;52.292;13.452;2023-03-24T11:06:03;14.60;99.90
21612;DHT22;47005;52.292;13.452;2023-03-24T11:08:38;14.50;99.90
21612;DHT22;47005;52.292;13.452;2023-03-24T11:11:13;14.30;99.90
21612;DHT22;47005;52.292;13.452;2023-03-24T11:13:39;14.20;99.90
21612;DHT22;47005;52.292;13.452;2023-03-24T11:16:14;14.10;99.90
21612;DHT22;47005;52.292;13.452;2023-03-24T11:19:03;14.10;99.90
21612;DHT22;47005;52.292;13.452;2023-03-24T11:21:39;14.00;99.90
21612;DHT22;47005;52.292;13.452;2023-03-24T11:24:12;14.00;99.90
21612;DHT22;47005;52.292;13.452;2023-03-24T11:26:43;13.90;99.90
21612;DHT22;47005;52.292;13.452;2023-03-24T11:29:15;13.90;99.90
21612;DHT22;47005;52.292;13.452;2023-03-24T11:31:55;13.90;99.90
21612;DHT22;47005;52.292;13.452;2023-03-24T11:34:27;13.90;99.90
21612;DHT22;47005;52.292;13.452;2023-03-24T11:37:04;13.90;99.90
21612;DHT22;47005;52.292;13.452;2023-03-24T11:39:33;14.00;99.90
21612;DHT22;47005;52.292;13.452;2023-03-24T11:44:40;14.00;99.90
21612;DHT22;47005;52.292;13.452;2023-03-24T11:47:15;14.00;99.90
21612;DHT22;47005;52.292;13.452;2023-03-24T11:49:56;14.10;99.90
21612;DHT22;47005;52.292;13.452;2023-03-24T11:52:30;14.20;99.90
21612;DHT22;47005;52.292;13.452;2023-03-24T11:54:57;14.30;99.90
21612;DHT22;47005;52.292;13.452;2023-03-24T11:57:56;14.40;99.90
21612;DHT22;47005;52.292;13.452;2023-03-24T12:00:31;14.40;99.90
21612;DHT22;47005;52.292;13.452;2023-03-24T12:05:43;14.60;99.90
21612;DHT22;47005;52.292;13.452;2023-03-24T12:13:36;14.70;99.90
21612;DHT22;47005;52.292;13.452;2023-03-24T12:16:18;14.70;99.90
21612;DHT22;47005;52.292;13.452;2023-03-24T12:24:08;14.80;99.90
21612;DHT22;47005;52.292;13.452;2023-03-24T12:26:41;14.90;99.90
21612;DHT22;47005;52.292;13.452;2023-03-24T12:29:21;14.90;99.90
21612;DHT22;47005;52.292;13.452;2023-03-24T12:34:43;14.90;99.90
21612;DHT22;47005;52.292;13.452;2023-03-24T12:42:39;15.00;99.90
21612;DHT22;47005;52.292;13.452;2023-03-24T12:56:17;15.00;98.80
21612;DHT22;47005;52.292;13.452;2023-03-24T12:58:47;15.00;98.80
21612;DHT22;47005;52.292;13.452;2023-03-24T13:01:17;15.00;98.20
21612;DHT22;47005;52.292;13.452;2023-03-24T13:04:17;15.00;98.60
21612;DHT22;47005;52.292;13.452;2023-03-24T13:09:21;15.10;97.10
21612;DHT22;47005;52.292;13.452;2023-03-24T13:15:00;15.10;97.30
21612;DHT22;47005;52.292;13.452;2023-03-24T13:17:40;15.10;96.40
21612;DHT22;47005;52.292;13.452;2023-03-24T13:20:32;15.10;98.00
21612;DHT22;47005;52.292;13.452;2023-03-24T13:25:58;15.20;95.90
21612;DHT22;47005;52.292;13.452;2023-03-24T13:28:37;15.20;96.10
21612;DHT22;47005;52.292;13.452;2023-03-24T13:31:06;15.20;95.90
21612;DHT22;47005;52.292;13.452;2023-03-24T13:33:34;15.30;95.90
21612;DHT22;47005;52.292;13.452;2023-03-24T13:38:50;15.30;95.70
21612;DHT22;47005;52.292;13.452;2023-03-24T13:41:19;15.30;95.40
21612;DHT22;47005;52.292;13.452;2023-03-24T13:43:50;15.30;95.90
21612;DHT22;47005;52.292;13.452;2023-03-24T13:46:22;15.30;95.60
21612;DHT22;47005;52.292;13.452;2023-03-24T13:48:57;15.20;94.30
21612;DHT22;47005;52.292;13.452;2023-03-24T13:51:34;15.20;93.40
21612;DHT22;47005;52.292;13.452;2023-03-24T13:54:14;15.20;93.30
21612;DHT22;47005;52.292;13.452;2023-03-24T13:56:55;15.10;92.60
21612;DHT22;47005;52.292;13.452;2023-03-24T13:59:27;15.10;92.30
21612;DHT22;47005;52.292;13.452;2023-03-24T14:02:18;15.10;92.40
21612;DHT22;47005;52.292;13.452;2023-03-24T14:15:32;15.20;92.80
21612;DHT22;47005;52.292;13.452;2023-03-24T14:25:58;15.30;93.40
21612;DHT22;47005;52.292;13.452;2023-03-24T14:28:32;15.30;93.50
21612;DHT22;47005;52.292;13.452;2023-03-24T14:31:02;15.20;93.00
21612;DHT22;47005;52.292;13.452;2023-03-24T14:33:34;15.20;92.30
21612;DHT22;47005;52.292;13.452;2023-03-24T14:36:05;15.20;92.60
21612;DHT22;47005;52.292;13.452;2023-03-24T14:38:35;15.30;92.90
21612;DHT22;47005;52.292;13.452;2023-03-24T14:41:13;15.30;91.90
21612;DHT22;47005;52.292;13.452;2023-03-24T14:51:59;15.40;92.80
21612;DHT22;47005;52.292;13.452;2023-03-24T14:54:31;15.40;91.80
21612;DHT22;47005;52.292;13.452;2023-03-24T14:56:59;15.40;92.30
21612;DHT22;47005;52.292;13.452;2023-03-24T15:08:02;15.40;94.10
21612;DHT22;47005;52.292;13.452;2023-03-24T15:10:59;15.30;94.40
21612;DHT22;47005;52.292;13.452;2023-03-24T15:13:30;15.30;94.50
21612;DHT22;47005;52.292;13.452;2023-03-24T15:15:56;15.30;94.90
21612;DHT22;47005;52.292;13.452;2023-03-24T15:18:22;15.30;95.00
21612;DHT22;47005;52.292;13.452;2023-03-24T15:20:49;15.30;95.20
21612;DHT22;47005;52.292;13.452;2023-03-24T15:23:25;15.30;95.30
21612;DHT22;47005;52.292;13.452;2023-03-24T15:25:53;15.30;95.50
21612;DHT22;47005;52.292;13.452;2023-03-24T15:28:25;15.30;95.20
21612;DHT22;47005;52.292;13.452;2023-03-24T15:30:51;15.30;95.20
21612;DHT22;47005;52.292;13.452;2023-03-24T15:33:19;15.30;95.70
21612;DHT22;47005;52.292;13.452;2023-03-24T15:35:46;15.30;95.20
21612;DHT22;47005;52.292;13.452;2023-03-24T15:38:24;15.20;95.30
21612;DHT22;47005;52.292;13.452;2023-03-24T15:43:21;15.30;95.80
21612;DHT22;47005;52.292;13.452;2023-03-24T15:45:59;15.30;95.90
21612;DHT22;47005;52.292;13.452;2023-03-24T15:48:31;15.30;96.10
21612;DHT22;47005;52.292;13.452;2023-03-24T15:51:07;15.30;96.10
21612;DHT22;47005;52.292;13.452;2023-03-24T15:56:18;15.40;96.20
21612;DHT22;47005;52.292;13.452;2023-03-24T16:01:18;15.50;96.10
21612;DHT22;47005;52.292;13.452;2023-03-24T16:03:45;15.60;96.10
21612;DHT22;47005;52.292;13.452;2023-03-24T16:06:28;15.70;95.90
21612;DHT22;47005;52.292;13.452;2023-03-24T16:09:02;15.90;96.40
21612;DHT22;47005;52.292;13.452;2023-03-24T16:11:29;16.00;95.50
21612;DHT22;47005;52.292;13.452;2023-03-24T16:13:55;16.00;95.40
21612;DHT22;47005;52.292;13.452;2023-03-24T16:16:35;16.10;95.50
21612;DHT22;47005;52.292;13.452;2023-03-24T16:19:01;16.00;95.80
21612;DHT22;47005;52.292;13.452;2023-03-24T16:21:29;16.00;95.70
21612;DHT22;47005;52.292;13.452;2023-03-24T16:23:57;16.00;95.80
21612;DHT22;47005;52.292;13.452;2023-03-24T16:26:23;15.90;95.90
21612;DHT22;47005;52.292;13.452;2023-03-24T16:28:50;15.90;96.20
21612;DHT22;47005;52.292;13.452;2023-03-24T16:31:27;15.80;96.20
21612;DHT22;47005;52.292;13.452;2023-03-24T16:33:58;15.70;96.40
21612;DHT22;47005;52.292;13.452;2023-03-24T16:36:24;15.70;97.00
21612;DHT22;47005;52.292;13.452;2023-03-24T16:38:57;15.60;96.70
21612;DHT22;47005;52.292;13.452;2023-03-24T16:41:24;15.60;96.80
21612;DHT22;47005;52.292;13.452;2023-03-24T16:43:50;15.50;96.80
21612;DHT22;47005;52.292;13.452;2023-03-24T16:48:51;15.40;97.00
21612;DHT22;47005;52.292;13.452;2023-03-24T16:51:17;15.30;97.20
21612;DHT22;47005;52.292;13.452;2023-03-24T16:53:44;15.30;97.40
21612;DHT22;47005;52.292;13.452;2023-03-24T16:56:19;15.30;97.30
21612;DHT22;47005;52.292;13.452;2023-03-24T16:58:46;15.20;97.30
21612;DHT22;47005;52.292;13.452;2023-03-24T17:03:59;15.20;97.50
21612;DHT22;47005;52.292;13.452;2023-03-24T17:06:32;15.10;97.60
21612;DHT22;47005;52.292;13.452;2023-03-24T17:08:58;15.10;97.60
21612;DHT22;47005;52.292;13.452;2023-03-24T17:11:29;15.00;97.70
21612;DHT22;47005;52.292;13.452;2023-03-24T17:13:56;15.00;97.70
21612;DHT22;47005;52.292;13.452;2023-03-24T17:16:35;14.90;97.80
21612;DHT22;47005;52.292;13.452;2023-03-24T17:19:06;14.90;97.90
21612;DHT22;47005;52.292;13.452;2023-03-24T17:21:33;14.80;98.00
21612;DHT22;47005;52.292;13.452;2023-03-24T17:24:01;14.80;98.00
21612;DHT22;47005;52.292;13.452;2023-03-24T17:26:28;14.70;98.10
21612;DHT22;47005;52.292;13.452;2023-03-24T17:28:53;14.70;98.60
21612;DHT22;47005;52.292;13.452;2023-03-24T17:31:19;14.70;98.30
21612;DHT22;47005;52.292;13.452;2023-03-24T17:33:45;14.60;98.60
21612;DHT22;47005;52.292;13.452;2023-03-24T17:36:14;14.60;98.60
21612;DHT22;47005;52.292;13.452;2023-03-24T17:38:41;14.50;98.60
21612;DHT22;47005;52.292;13.452;2023-03-24T17:41:08;14.50;98.40
21612;DHT22;47005;52.292;13.452;2023-03-24T17:43:33;14.40;98.60
21612;DHT22;47005;52.292;13.452;2023-03-24T17:46:00;14.40;98.90
21612;DHT22;47005;52.292;13.452;2023-03-24T17:48:26;14.40;98.70
21612;DHT22;47005;52.292;13.452;2023-03-24T17:50:53;14.30;99.10
21612;DHT22;47005;52.292;13.452;2023-03-24T17:53:19;14.30;99.10
21612;DHT22;47005;52.292;13.452;2023-03-24T17:55:52;14.20;98.90
21612;DHT22;47005;52.292;13.452;2023-03-24T17:58:19;14.20;99.10
21612;DHT22;47005;52.292;13.452;2023-03-24T18:00:45;14.10;99.10
21612;DHT22;47005;52.292;13.452;2023-03-24T18:03:10;14.10;99.00
21612;DHT22;47005;52.292;13.452;2023-03-24T18:05:36;14.00;99.10
21612;DHT22;47005;52.292;13.452;2023-03-24T18:08:02;14.00;98.90
21612;DHT22;47005;52.292;13.452;2023-03-24T18:10:30;14.00;99.00
21612;DHT22;47005;52.292;13.452;2023-03-24T18:12:55;13.90;98.90
21612;DHT22;47005;52.292;13.452;2023-03-24T18:15:21;13.90;99.10
21612;DHT22;47005;52.292;13.452;2023-03-24T18:17:47;13.90;99.00
21612;DHT22;47005;52.292;13.452;2023-03-24T18:20:12;13.80;99.10
21612;DHT22;47005;52.292;13.452;2023-03-24T18:22:39;13.80;99.60
21612;DHT22;47005;52.292;13.452;2023-03-24T18:25:07;13.70;99.30
21612;DHT22;47005;52.292;13.452;2023-03-24T18:27:33;13.70;98.90
21612;DHT22;47005;52.292;13.452;2023-03-24T18:30:00;13.70;99.00
21612;DHT22;47005;52.292;13.452;2023-03-24T18:32:26;13.70;98.90
21612;DHT22;47005;52.292;13.452;2023-03-24T18:34:52;13.60;98.90
21612;DHT22;47005;52.292;13.452;2023-03-24T18:37:18;13.60;99.00
21612;DHT22;47005;52.292;13.452;2023-03-24T18:39:44;13.60;98.90